Historyczne dane pomiarowe

Dodano dane terminowe – wersja testowa.

Dane z okresu 1951-2019

Wersja bazy: 1.34 [2019-03-16, lista zmian], aktualizacja planowana na 2019-04-15

Dane meteo z obszaru Polski uzyskane na podstawie danych udostępnionych przez Instytut Meteorologii i Gospodarki Wodnej – Państwowy Instytut Badawczy.

 

Wybierz Datę:    

       

TemperaturaWilgotnośćZachmurzenieWiatrCiśnienieWidzialnośćZjawiska
 Data    tng td wb rh cc ccl cl cm ch dir g1 g2 mslp ppp      
1999-08-09 00:00:00 16.7--- 16.2 16.497wxwxwx1wx--1004.7 983.0 0.0---wx
1999-08-09 01:00:00 16.7--- 16.4 16.598wxwxwx0wx--1004.6 982.9----wx
1999-08-09 02:00:00 16.7--- 16.7 16.7100wxwxwx0wx--1004.5 982.8----wx
1999-08-09 03:00:00 17.1--- 17.1 17.1100wxwxwx0wx--1004.7 983.0----wx
1999-08-09 04:00:00 17.4--- 17.2 17.399wxwxwx1wx--1004.9 983.2----wx
1999-08-09 05:00:00 17.7--- 17.5 17.699wxwxwx1wx--1004.9 983.2----wx
1999-08-09 06:00:00 18.0--- 17.8 17.999wxwxwx2wx--1005.0 983.4 0.0---wxw1
1999-08-09 07:00:00 17.6--- 17.4 17.599wxwxwx1wx--1005.1 983.4----wx
1999-08-09 08:00:00 20.2--- 19.2 19.594wxwxwx2wx--1005.2 983.7----wx
1999-08-09 09:00:00 22.0--- 20.5 21.091wxwxwx2wx--1005.1 983.7----wxw1
1999-08-09 10:00:00 25.4--- 20.5 22.074wxwxwxwx1wx--1004.8 983.7----wx
1999-08-09 11:00:00 25.8--- 20.3 22.072wxwxwxwx1wx--1004.6 983.5----wx
1999-08-09 12:00:00 27.0--- 19.7 22.064wxwxwx4wx--1004.1 983.1 0.9---wxw1
1999-08-09 13:00:00 26.0--- 19.6 21.668wxwxwx3wx--1004.0 982.9----wx
1999-08-09 14:00:00 25.0--- 18.1 20.466wxwxwx4wx--1004.1 983.0----wx
1999-08-09 15:00:00 26.8--- 19.5 21.864wxwxwxwx4wx--1004.0 983.0----wx
1999-08-09 16:00:00 26.2--- 19.8 21.868wxwxwxwx3wx--1004.0 983.0----wx
1999-08-09 17:00:00 25.0--- 17.4 20.063wxwxwxwx3wx--1004.5 983.4----wx
1999-08-09 18:00:00 23.2--- 19.7 20.881wxwxwxwx2wx--1004.8 983.5 0.0---wx
1999-08-09 19:00:00 22.2--- 18.9 20.082wxwxwx3wx--1005.1 983.8----wx
1999-08-09 20:00:00 21.4--- 17.7 19.080wxwxwx2wx--1005.4 984.0----wx
1999-08-09 21:00:00 19.4--- 17.2 18.087wxwxwx0wx--1005.9 984.3----wx
1999-08-09 22:00:00 18.8--- 17.6 18.093wxwxwx0wx--1006.3 984.7----wx
1999-08-09 23:00:00 18.1--- 17.2 17.594wxwxwx4wx--1006.9 985.2----wx

 

Źródłem pochodzenia danych jest Instytut Meteorologii i Gospodarki Wodnej – Państwowy Instytut Badawczy. Dane Instytutu Meteorologii i Gospodarki Wodnej – Państwowego Instytutu Badawczego zostały przetworzone.

Dane źródłowe można odnaleźć na stronie https://dane.imgw.pl